Time;durP1;ratioP1;P1;durP2;ratioP2;P2;SDS_P1;SDS_P2;PMS_P1;PMS_P2;Temp;Humidity;BMP_temperature;BMP_pressure;BME280_temperature;BME280_humidity;BME280_pressure;Samples;Min_cycle;Max_cycle;Signal;HPM_P1;HPM_P2
2022/11/27 00:01:56;;;;;;;125.40;88.90;;;;;;;3.19;72.71;101780.23;108332;1281;23079;-79
2022/11/27 00:04:24;;;;;;;121.80;88.50;;;;;;;3.14;72.89;101782.20;108091;1281;23096;-81
2022/11/27 00:06:54;;;;;;;132.80;93.00;;;;;;;3.10;73.11;101783.17;108438;1281;21990;-81
2022/11/27 00:09:22;;;;;;;135.30;95.80;;;;;;;3.09;73.19;101785.05;108338;1281;21955;-81
2022/11/27 00:11:52;;;;;;;125.00;89.30;;;;;;;3.12;73.47;101786.30;108118;1278;22734;-80
2022/11/27 00:14:20;;;;;;;124.70;92.60;;;;;;;3.19;73.74;101786.59;108657;1275;22358;-79
2022/11/27 00:16:48;;;;;;;132.50;93.00;;;;;;;3.24;73.75;101781.52;108444;1278;21931;-80
2022/11/27 00:19:18;;;;;;;128.50;91.80;;;;;;;3.26;73.69;101782.05;108515;1272;22659;-80
2022/11/27 00:21:47;;;;;;;130.30;94.10;;;;;;;3.27;73.61;101781.02;108504;1273;21938;-80
2022/11/27 00:24:15;;;;;;;122.80;92.50;;;;;;;3.27;73.72;101782.06;108512;1278;21952;-80
2022/11/27 00:26:45;;;;;;;122.70;93.50;;;;;;;3.30;73.79;101785.38;108579;1278;23692;-80
2022/11/27 00:29:13;;;;;;;133.00;93.70;;;;;;;3.35;73.88;101789.40;108632;1278;21925;-80
2022/11/27 00:31:41;;;;;;;133.00;95.00;;;;;;;3.39;73.93;101787.92;108324;1281;23598;-79
2022/11/27 00:34:10;;;;;;;138.10;97.20;;;;;;;3.43;73.87;101788.14;108337;1275;21956;-80
2022/11/27 00:36:39;;;;;;;144.20;98.20;;;;;;;3.44;73.81;101791.26;108030;1280;23520;-80
2022/11/27 00:39:22;;;;;;;140.60;98.20;;;;;;;3.46;73.85;101791.64;108173;1278;22607;-80
2022/11/27 00:41:56;;;;;;;;;;;;;;;3.49;73.84;101793.73;108566;1278;21906;-81
2022/11/27 00:44:29;;;;;;;134.20;96.00;;;;;;;3.44;74.04;101794.01;107272;1283;1282438;-80
2022/11/27 00:46:57;;;;;;;139.00;95.70;;;;;;;3.46;74.07;101795.94;108244;1277;21957;-80
2022/11/27 00:49:25;;;;;;;134.40;96.50;;;;;;;3.50;73.94;101798.06;108182;1278;22603;-80
2022/11/27 00:51:55;;;;;;;127.90;96.70;;;;;;;3.52;73.84;101797.58;108578;1277;21944;-80
2022/11/27 00:54:26;;;;;;;137.70;96.10;;;;;;;3.52;73.83;101787.41;108461;1278;23076;-81
2022/11/27 00:56:54;;;;;;;142.60;99.10;;;;;;;3.53;73.70;101791.90;108377;1277;21965;-79
2022/11/27 00:59:24;;;;;;;139.50;101.50;;;;;;;3.50;73.59;101790.81;108401;1277;21947;-81
2022/11/27 01:01:57;;;;;;;147.90;102.70;;;;;;;3.47;73.55;101788.55;108543;1274;21938;-79
2022/11/27 01:04:26;;;;;;;147.30;103.00;;;;;;;3.44;73.63;101787.47;108464;1278;22791;-80
2022/11/27 01:06:56;;;;;;;142.80;100.20;;;;;;;3.39;73.50;101784.83;108336;1278;23118;-79
2022/11/27 01:09:24;;;;;;;145.70;103.00;;;;;;;3.32;73.42;101786.09;107997;1283;23709;-79
2022/11/27 01:11:52;;;;;;;133.50;97.50;;;;;;;3.27;73.55;101785.50;108088;1282;21947;-79
2022/11/27 01:14:22;;;;;;;133.60;93.30;;;;;;;3.18;73.55;101786.57;108286;1283;22806;-79
2022/11/27 01:16:51;;;;;;;143.80;97.40;;;;;;;3.14;73.75;101785.98;108205;1281;21943;-79
2022/11/27 01:19:19;;;;;;;141.70;101.40;;;;;;;3.16;74.08;101790.46;108053;1283;23775;-79
2022/11/27 01:21:50;;;;;;;132.80;96.20;;;;;;;3.20;74.23;101790.73;107883;1285;22223;-80
2022/11/27 01:24:21;;;;;;;138.10;100.10;;;;;;;3.23;74.32;101789.73;108078;1283;23852;-80
2022/11/27 01:26:49;;;;;;;130.90;96.50;;;;;;;3.26;74.45;101790.64;107683;1286;23070;-80
2022/11/27 01:29:17;;;;;;;132.80;95.20;;;;;;;3.31;74.52;101793.64;108101;1284;23702;-80
2022/11/27 01:31:44;;;;;;;130.70;99.70;;;;;;;3.36;74.50;101793.20;107902;1285;22253;-80
2022/11/27 01:34:17;;;;;;;133.90;97.40;;;;;;;3.38;74.36;101787.55;108224;1280;21961;-80
2022/11/27 01:36:45;;;;;;;;;;;;;;;3.35;74.21;101789.92;108350;1285;21920;-79
2022/11/27 01:39:18;;;;;;;123.50;86.60;;;;;;;3.22;74.16;101792.83;107964;1281;23484;-79
2022/11/27 01:41:47;;;;;;;130.90;89.80;;;;;;;3.14;74.14;101794.61;108255;1280;21942;-79
2022/11/27 01:44:24;;;;;;;132.00;93.00;;;;;;;3.12;74.23;101798.17;108328;1280;22319;-79
2022/11/27 01:47:04;;;;;;;120.40;88.70;;;;;;;3.15;74.43;101793.05;108422;1275;23058;-80
2022/11/27 01:49:44;;;;;;;121.20;88.50;;;;;;;3.16;74.41;101791.86;108431;1278;21983;-79
2022/11/27 01:52:31;;;;;;;130.40;92.30;;;;;;;3.12;74.37;101793.18;108668;1272;24306;-80
2022/11/27 01:55:30;;;;;;;133.20;95.10;;;;;;;3.09;74.46;101798.98;108831;1272;23726;-81
2022/11/27 01:58:22;;;;;;;121.10;92.80;;;;;;;3.08;74.63;101801.89;108716;1274;23030;-81
2022/11/27 02:00:53;;;;;;;119.10;84.90;;;;;;;3.10;74.72;101802.44;109012;1266;21942;-81
2022/11/27 02:03:22;;;;;;;120.80;87.70;;;;;;;3.11;74.69;101799.87;108793;1272;22006;-80
2022/11/27 02:05:50;;;;;;;126.60;89.50;;;;;;;3.14;74.74;101799.06;108776;1272;21949;-81
2022/11/27 02:08:18;;;;;;;123.50;90.70;;;;;;;3.18;74.86;101804.98;108830;1272;22702;-82
2022/11/27 02:10:53;;;;;;;132.20;91.30;;;;;;;3.23;75.01;101805.73;108698;1272;21952;-81
2022/11/27 02:13:30;;;;;;;129.90;91.70;;;;;;;3.26;74.92;101811.30;108831;1272;23030;-80
2022/11/27 02:16:15;;;;;;;127.80;88.20;;;;;;;3.27;74.89;101815.27;108898;1272;21924;-80
2022/11/27 02:19:13;;;;;;;131.10;93.30;;;;;;;3.28;74.83;101815.80;108508;1279;22059;-80
2022/11/27 02:22:13;;;;;;;120.10;85.00;;;;;;;3.26;74.70;101816.63;108387;1278;23072;-80
2022/11/27 02:24:47;;;;;;;122.00;89.40;;;;;;;3.28;74.86;101817.02;108295;1277;23577;-79
2022/11/27 02:27:51;;;;;;;118.00;85.30;;;;;;;3.29;74.74;101819.78;108471;1273;21924;-80
2022/11/27 02:30:19;;;;;;;125.40;91.90;;;;;;;3.22;74.48;101824.30;108565;1279;23836;-81
2022/11/27 02:32:58;;;;;;;113.80;87.20;;;;;;;3.21;74.73;101831.17;108593;1279;21936;-80
2022/11/27 02:35:56;;;;;;;118.30;88.70;;;;;;;3.27;74.92;101830.06;108609;1279;24273;-80
2022/11/27 02:38:46;;;;;;;120.10;87.40;;;;;;;3.28;74.95;101822.69;108456;1275;21942;-79
2022/11/27 02:41:23;;;;;;;124.90;92.10;;;;;;;3.26;74.63;101821.63;108524;1275;22004;-79
2022/11/27 02:43:56;;;;;;;117.10;87.90;;;;;;;3.19;74.45;101824.08;108806;1272;23008;-78
2022/11/27 02:46:27;;;;;;;129.30;93.60;;;;;;;3.15;74.65;101821.27;108801;1272;21931;-79
2022/11/27 02:49:13;;;;;;;123.20;90.50;;;;;;;3.15;74.72;101819.90;108827;1268;21922;-80
2022/11/27 02:51:56;;;;;;;116.10;91.40;;;;;;;3.17;74.87;101818.03;108722;1272;21936;-80
2022/11/27 02:54:30;;;;;;;126.30;93.20;;;;;;;3.20;74.96;101819.98;108830;1272;22798;-79
2022/11/27 02:57:03;;;;;;;126.70;95.50;;;;;;;3.24;74.96;101814.86;108606;1276;21956;-81
2022/11/27 02:59:37;;;;;;;128.40;95.30;;;;;;;3.22;74.71;101813.27;108211;1283;21941;-79
2022/11/27 03:02:18;;;;;;;124.80;96.00;;;;;;;3.17;74.68;101809.77;108178;1283;23210;-81
2022/11/27 03:04:52;;;;;;;126.20;94.20;;;;;;;3.17;74.77;101810.63;107719;1288;23662;-82
2022/11/27 03:07:35;;;;;;;114.40;87.90;;;;;;;3.17;74.79;101808.91;107840;1288;22007;-82
2022/11/27 03:10:28;;;;;;;124.30;93.10;;;;;;;3.12;74.69;101809.01;107628;1288;21958;-79
2022/11/27 03:13:02;;;;;;;132.40;93.00;;;;;;;3.06;74.81;101807.88;107624;1289;23701;-80
2022/11/27 03:15:56;;;;;;;124.40;95.30;;;;;;;3.07;75.07;101806.69;107734;1283;22407;-79
2022/11/27 03:18:47;;;;;;;120.70;92.90;;;;;;;3.11;75.11;101801.27;108130;1283;21955;-79
2022/11/27 03:21:28;;;;;;;123.40;93.40;;;;;;;3.10;74.96;101801.05;108170;1282;21938;-79
2022/11/27 03:23:57;;;;;;;119.70;91.40;;;;;;;3.08;75.09;101804.47;108483;1277;22022;-80
2022/11/27 03:26:28;;;;;;;136.30;95.90;;;;;;;3.11;75.13;101801.09;108354;1278;22460;-80
2022/11/27 03:28:59;;;;;;;137.60;100.80;;;;;;;3.12;75.06;101799.55;108604;1275;23674;-81
2022/11/27 03:31:27;;;;;;;123.90;95.70;;;;;;;3.11;75.11;101795.07;108414;1276;22315;-79
2022/11/27 03:33:56;;;;;;;123.10;93.00;;;;;;;3.14;75.29;101792.88;108443;1275;23568;-80
2022/11/27 03:36:25;;;;;;;119.40;91.90;;;;;;;3.19;75.48;101795.17;108679;1272;23145;-80
2022/11/27 03:38:54;;;;;;;121.60;92.30;;;;;;;3.22;75.35;101793.33;108803;1272;21931;-80
2022/11/27 03:41:38;;;;;;;120.60;90.20;;;;;;;3.23;75.33;101792.50;108892;1272;21952;-80
2022/11/27 03:44:52;;;;;;;117.20;86.60;;;;;;;3.24;75.41;101793.20;108979;1269;22214;-81
2022/11/27 03:48:05;;;;;;;120.80;85.80;;;;;;;3.24;75.30;101796.63;108872;1272;21886;-81
2022/11/27 03:51:01;;;;;;;107.30;79.20;;;;;;;3.14;75.07;101794.42;109110;1272;22988;-81
2022/11/27 03:54:09;;;;;;;109.50;81.10;;;;;;;3.06;75.12;101792.23;108596;1275;22089;-82
2022/11/27 03:57:07;;;;;;;107.20;79.10;;;;;;;3.02;75.27;101785.27;108510;1273;21923;-81
2022/11/27 03:59:41;;;;;;;106.60;78.10;;;;;;;2.99;75.18;101783.68;108469;1277;21986;-80
2022/11/27 04:02:14;;;;;;;102.20;74.00;;;;;;;2.96;75.32;101788.96;108385;1277;22010;-81
2022/11/27 04:04:42;;;;;;;116.80;83.90;;;;;;;2.99;75.60;101793.48;108657;1272;22356;-81
2022/11/27 04:07:17;;;;;;;101.40;78.30;;;;;;;3.07;75.73;101792.08;108037;1281;21956;-80
2022/11/27 04:09:46;;;;;;;96.10;73.50;;;;;;;3.12;75.67;101782.69;108337;1282;21946;-82
2022/11/27 04:12:14;;;;;;;105.10;78.00;;;;;;;3.12;75.54;101771.51;108591;1278;22251;-81
2022/11/27 04:14:45;;;;;;;104.70;74.90;;;;;;;3.06;75.38;101770.38;108238;1283;22160;-80
2022/11/27 04:17:13;;;;;;;100.10;77.30;;;;;;;3.02;75.45;101773.91;107940;1283;21947;-80
2022/11/27 04:19:41;;;;;;;99.30;75.30;;;;;;;3.01;75.49;101776.67;108327;1279;21953;-79
2022/11/27 04:22:13;;;;;;;108.80;77.20;;;;;;;3.03;75.72;101774.63;108042;1283;21944;-80
2022/11/27 04:24:42;;;;;;;95.30;72.10;;;;;;;3.06;75.90;101771.94;107998;1278;23631;-80
2022/11/27 04:27:10;;;;;;;92.90;71.40;;;;;;;3.09;75.86;101770.95;108632;1280;21943;-80
2022/11/27 04:29:38;;;;;;;89.90;68.20;;;;;;;3.13;75.88;101766.19;108351;1280;21954;-80
2022/11/27 04:32:06;;;;;;;87.30;66.50;;;;;;;3.16;75.95;101761.95;108430;1274;23090;-80
2022/11/27 04:34:34;;;;;;;89.90;69.40;;;;;;;3.19;75.87;101761.28;108761;1273;21927;-80
2022/11/27 04:37:02;;;;;;;89.80;68.00;;;;;;;3.19;75.88;101758.89;108726;1272;23713;-80
2022/11/27 04:39:29;;;;;;;92.40;70.10;;;;;;;3.23;76.03;101752.75;108744;1272;21931;-80
2022/11/27 04:42:01;;;;;;;87.60;66.40;;;;;;;3.27;75.82;101749.02;108782;1274;22002;-80
2022/11/27 04:44:29;;;;;;;89.70;65.80;;;;;;;3.27;75.83;101747.30;108728;1273;21922;-80
2022/11/27 04:46:57;;;;;;;85.00;61.80;;;;;;;3.29;75.98;101746.98;108669;1274;22392;-80
2022/11/27 04:49:27;;;;;;;84.80;62.70;;;;;;;3.35;76.08;101747.07;108668;1271;22370;-79
2022/11/27 04:51:55;;;;;;;83.60;61.50;;;;;;;3.41;76.10;101740.96;108608;1277;22337;-79
2022/11/27 04:54:25;;;;;;;77.60;61.40;;;;;;;3.43;76.04;101741.34;108139;1277;23596;-81
2022/11/27 04:56:56;;;;;;;82.70;62.40;;;;;;;3.37;75.79;101740.73;108629;1277;24365;-79
2022/11/27 04:59:24;;;;;;;83.10;61.30;;;;;;;3.31;75.82;101743.40;108440;1278;24273;-82
2022/11/27 05:01:52;;;;;;;82.10;63.00;;;;;;;3.33;75.91;101745.66;108566;1277;23034;-80
2022/11/27 05:04:21;;;;;;;86.90;65.80;;;;;;;3.36;75.82;101750.88;108522;1278;23042;-81
2022/11/27 05:06:49;;;;;;;91.40;68.60;;;;;;;3.38;75.82;101756.58;108343;1277;24321;-81
2022/11/27 05:09:18;;;;;;;95.20;71.70;;;;;;;3.39;75.87;101757.27;108507;1278;21950;-81
2022/11/27 05:11:46;;;;;;;96.10;71.50;;;;;;;3.41;76.01;101759.54;108595;1277;21948;-80
2022/11/27 05:14:15;;;;;;;92.70;70.70;;;;;;;3.44;76.03;101763.73;108720;1274;23018;-79
2022/11/27 05:16:47;;;;;;;88.00;68.90;;;;;;;3.46;76.03;101761.69;108895;1272;21930;-79
2022/11/27 05:19:17;;;;;;;90.40;67.70;;;;;;;3.48;75.92;101756.02;108690;1272;22175;-80
2022/11/27 05:21:49;;;;;;;92.00;68.60;;;;;;;3.47;75.88;101750.34;108743;1272;23056;-81
2022/11/27 05:24:22;;;;;;;91.10;69.30;;;;;;;3.45;75.74;101748.77;108660;1274;21939;-80
2022/11/27 05:26:50;;;;;;;92.40;70.90;;;;;;;3.44;75.81;101755.30;108602;1278;23670;-81
2022/11/27 05:29:19;;;;;;;95.30;70.20;;;;;;;3.47;75.95;101762.05;108511;1277;23835;-81
2022/11/27 05:31:47;;;;;;;94.90;71.30;;;;;;;3.50;75.97;101761.06;108584;1280;23083;-81
2022/11/27 05:34:15;;;;;;;100.50;72.80;;;;;;;3.54;75.95;101748.70;108545;1278;21925;-81
2022/11/27 05:36:44;;;;;;;86.40;67.80;;;;;;;3.57;75.85;101745.65;108399;1280;23048;-81
2022/11/27 05:39:14;;;;;;;89.90;69.10;;;;;;;3.56;75.75;101738.40;108286;1281;23139;-81
2022/11/27 05:41:45;;;;;;;88.80;65.30;;;;;;;3.51;75.69;101735.24;108413;1278;21949;-80
2022/11/27 05:44:14;;;;;;;87.50;64.60;;;;;;;3.50;75.78;101739.70;108458;1276;23575;-80
2022/11/27 05:46:51;;;;;;;82.30;63.30;;;;;;;3.51;75.82;101740.58;108519;1278;21943;-82
2022/11/27 05:49:22;;;;;;;88.80;68.20;;;;;;;3.54;75.89;101736.14;108654;1278;23156;-80
2022/11/27 05:51:51;;;;;;;83.70;63.10;;;;;;;3.55;75.76;101727.73;108262;1280;21935;-81
2022/11/27 05:54:21;;;;;;;79.70;61.70;;;;;;;3.53;75.75;101723.73;108381;1278;21925;-82
2022/11/27 05:56:53;;;;;;;;;;;;;;;3.53;75.84;101722.03;108335;1283;24276;-83
2022/11/27 05:59:22;;;;;;;83.40;62.20;;;;;;;3.44;75.90;101722.25;107985;1288;22038;-81
2022/11/27 06:02:03;;;;;;;86.20;65.80;;;;;;;3.44;75.87;101727.23;107834;1284;21948;-83
2022/11/27 06:04:33;;;;;;;;;;;;;;;3.43;75.76;101734.45;107828;1285;23661;-81
2022/11/27 06:07:14;;;;;;;74.70;56.10;;;;;;;3.36;75.90;101741.23;107442;1292;21970;-82
2022/11/27 06:09:46;;;;;;;83.80;60.80;;;;;;;3.39;76.07;101745.75;107433;1289;21963;-82
2022/11/27 06:12:31;;;;;;;;;;;;;;;;;;;;;
2022/11/27 06:15:48;;;;;;;87.80;67.30;;;;;;;3.53;76.24;101755.41;107736;1287;22337;-78
2022/11/27 06:18:28;;;;;;;86.80;63.40;;;;;;;3.60;76.27;101763.41;108000;1282;21960;-80
2022/11/27 06:20:57;;;;;;;79.80;61.00;;;;;;;3.67;76.17;101768.34;107973;1283;21963;-78
2022/11/27 06:23:36;;;;;;;77.40;60.20;;;;;;;3.71;76.01;101777.00;108291;1283;22231;-79
2022/11/27 06:26:22;;;;;;;74.30;57.50;;;;;;;3.74;76.07;101775.67;108243;1277;22345;-80
2022/11/27 06:28:55;;;;;;;77.50;56.80;;;;;;;3.76;75.92;101795.66;108444;1280;21960;-79
2022/11/27 06:31:34;;;;;;;75.20;59.60;;;;;;;3.75;75.83;101806.33;108362;1278;23053;-78
2022/11/27 06:34:11;;;;;;;87.40;61.70;;;;;;;3.76;75.77;101809.77;108634;1272;22355;-79
2022/11/27 06:36:51;;;;;;;82.00;62.50;;;;;;;3.76;75.73;101800.83;108774;1272;21922;-80
2022/11/27 06:39:30;;;;;;;83.10;62.10;;;;;;;3.78;75.85;101804.65;108770;1272;21919;-81
2022/11/27 06:42:13;;;;;;;90.30;65.40;;;;;;;3.81;75.80;101808.64;108805;1272;22284;-79
2022/11/27 06:45:04;;;;;;;85.60;65.60;;;;;;;3.82;75.74;101804.34;108603;1272;21933;-79
2022/11/27 06:47:36;;;;;;;80.00;64.90;;;;;;;3.84;75.72;101798.17;108399;1277;21968;-81
2022/11/27 06:50:16;;;;;;;85.00;66.30;;;;;;;3.86;75.73;101799.07;108450;1278;22060;-82
2022/11/27 06:52:58;;;;;;;87.70;66.00;;;;;;;3.89;75.76;101801.85;108615;1277;24288;-79
2022/11/27 06:55:29;;;;;;;85.80;66.50;;;;;;;3.93;75.74;101796.40;108452;1272;23648;-79
2022/11/27 06:58:21;;;;;;;85.80;66.60;;;;;;;3.95;75.59;101793.66;108583;1278;21931;-78
2022/11/27 07:01:08;;;;;;;87.70;64.90;;;;;;;3.96;75.61;101792.31;108434;1276;23587;-79
2022/11/27 07:03:52;;;;;;;86.60;67.00;;;;;;;3.98;75.63;101793.54;108209;1276;21947;-79
2022/11/27 07:06:30;;;;;;;91.90;68.90;;;;;;;4.03;75.59;101791.70;108451;1272;22803;-79
2022/11/27 07:09:00;;;;;;;86.90;70.10;;;;;;;4.04;75.36;101789.98;108435;1275;21934;-78
2022/11/27 07:11:53;;;;;;;90.40;72.90;;;;;;;4.00;75.12;101789.76;108110;1283;21971;-78
2022/11/27 07:14:36;;;;;;;96.30;73.80;;;;;;;3.97;75.32;101797.49;107824;1283;22012;-78
2022/11/27 07:17:05;;;;;;;90.70;71.90;;;;;;;3.99;75.49;101798.89;108046;1283;23741;-78
2022/11/27 07:19:48;;;;;;;99.40;75.50;;;;;;;4.04;75.53;101794.13;108152;1270;21922;-78
2022/11/27 07:22:20;;;;;;;93.60;70.60;;;;;;;4.04;75.56;101795.67;108026;1283;21971;-78
2022/11/27 07:24:54;;;;;;;119.10;85.20;;;;;;;4.06;75.55;101794.48;107806;1283;23740;-78
2022/11/27 07:27:22;;;;;;;113.60;88.30;;;;;;;4.00;75.23;101788.05;107603;1283;23496;-77
2022/11/27 07:29:55;;;;;;;101.90;82.20;;;;;;;3.97;75.29;101785.42;107945;1277;21994;-77
2022/11/27 07:32:24;;;;;;;;;;;;;;;4.00;75.45;101794.23;107726;1283;21911;-77
2022/11/27 07:34:54;;;;;;;91.10;70.80;;;;;;;3.97;75.77;101799.89;107937;1283;21956;-77
2022/11/27 07:37:30;;;;;;;89.60;69.80;;;;;;;4.02;75.75;101803.39;107893;1281;23703;-78
2022/11/27 07:39:59;;;;;;;93.40;70.20;;;;;;;4.05;75.73;101796.89;107829;1284;22205;-77
2022/11/27 07:42:32;;;;;;;89.70;70.00;;;;;;;4.08;75.56;101793.15;107217;1289;23632;-77
2022/11/27 07:45:13;;;;;;;101.40;76.50;;;;;;;4.10;75.49;101792.30;107301;1286;21956;-78
2022/11/27 07:47:46;;;;;;;91.50;73.20;;;;;;;4.14;75.60;101792.17;107575;1283;21944;-80
2022/11/27 07:50:14;;;;;;;96.70;74.00;;;;;;;4.19;75.52;101791.55;107490;1289;23582;-78
2022/11/27 07:52:45;;;;;;;90.60;69.20;;;;;;;4.21;75.38;101792.95;107714;1281;22002;-76
2022/11/27 07:55:17;;;;;;;88.80;71.70;;;;;;;4.23;75.47;101791.94;107736;1283;22426;-77
2022/11/27 07:57:50;;;;;;;118.30;85.90;;;;;;;4.24;75.33;101787.63;108063;1279;21942;-80
2022/11/27 08:00:18;;;;;;;99.50;74.20;;;;;;;4.20;75.21;101785.53;108300;1272;23091;-79
2022/11/27 08:02:49;;;;;;;100.40;75.20;;;;;;;4.19;75.31;101788.27;108579;1272;21917;-79
2022/11/27 08:05:32;;;;;;;;;;;;;;;;;;;;;
2022/11/27 08:08:24;;;;;;;;;;;;;;;;;;;;;
2022/11/27 08:11:40;;;;;;;172.60;131.40;;;;;;;4.11;75.23;101779.56;108822;1275;21933;-83
2022/11/27 08:14:25;;;;;;;107.30;87.60;;;;;;;4.09;75.58;101780.24;108470;1275;21986;-78
2022/11/27 08:17:05;;;;;;;99.40;78.20;;;;;;;4.18;75.84;101781.03;108486;1275;21954;-79
2022/11/27 08:20:09;;;;;;;103.00;82.50;;;;;;;4.24;75.80;101775.23;108509;1275;21927;-79
2022/11/27 08:22:54;;;;;;;106.40;81.00;;;;;;;4.30;75.84;101769.09;108731;1275;21955;-80
2022/11/27 08:25:42;;;;;;;108.00;83.70;;;;;;;4.33;75.75;101770.00;108671;1275;21954;-78
2022/11/27 08:28:11;;;;;;;106.30;85.70;;;;;;;4.36;75.59;101773.98;108573;1271;21923;-80
2022/11/27 08:30:42;;;;;;;113.50;85.40;;;;;;;4.39;75.65;101779.70;108803;1272;21970;-80
2022/11/27 08:33:16;;;;;;;;;;;;;;;4.40;75.48;101777.13;108829;1268;21901;-79
2022/11/27 08:36:43;;;;;;;114.40;82.30;;;;;;;4.27;75.64;101768.19;108714;1272;23755;-80
2022/11/27 08:39:32;;;;;;;95.70;71.40;;;;;;;4.25;75.70;101775.06;108650;1278;21935;-80
2022/11/27 08:42:14;;;;;;;94.70;76.30;;;;;;;4.24;75.65;101781.42;108387;1277;23565;-79
2022/11/27 08:45:08;;;;;;;100.00;75.40;;;;;;;4.26;75.76;101785.61;108419;1277;22079;-79
2022/11/27 08:47:42;;;;;;;106.70;76.50;;;;;;;4.31;75.88;101778.42;108454;1272;21946;-81
2022/11/27 08:50:20;;;;;;;108.30;78.70;;;;;;;4.38;76.02;101772.45;108641;1277;22030;-81
2022/11/27 08:52:50;;;;;;;103.70;80.70;;;;;;;4.43;75.88;101770.27;108509;1277;22731;-80
2022/11/27 08:55:38;;;;;;;103.90;82.40;;;;;;;4.48;75.89;101766.35;108661;1277;21989;-80
2022/11/27 08:58:42;;;;;;;;;;;;;;;;;;;;;
2022/11/27 09:02:02;;;;;;;96.50;78.20;;;;;;;4.52;75.80;101776.20;108987;1269;23768;-84
2022/11/27 09:05:07;;;;;;;105.70;81.20;;;;;;;4.57;76.08;101782.13;109188;1263;21926;-86
2022/11/27 09:08:19;;;;;;;;;;;;;;;;;;;;;
2022/11/27 09:11:10;;;;;;;;;;;;;;;;;;;;;
2022/11/27 09:14:00;;;;;;;101.80;76.90;;;;;;;4.82;76.16;101778.73;108936;1272;21930;-83
2022/11/27 09:17:09;;;;;;;113.40;92.30;;;;;;;4.88;76.00;101783.97;108685;1277;24062;-84
2022/11/27 09:20:06;;;;;;;187.50;150.70;;;;;;;5.00;76.21;101795.28;108552;1276;23188;-84
2022/11/27 09:22:36;;;;;;;131.00;105.40;;;;;;;5.13;76.20;101794.52;108771;1277;21935;-84
2022/11/27 09:25:18;;;;;;;86.80;69.20;;;;;;;5.23;76.06;101797.52;108881;1277;23069;-85
2022/11/27 09:27:46;;;;;;;100.10;80.80;;;;;;;5.33;75.82;101795.70;108492;1277;21954;-83
2022/11/27 09:30:16;;;;;;;111.10;91.50;;;;;;;5.42;75.68;101796.80;108392;1278;21926;-84
2022/11/27 09:32:45;;;;;;;103.60;84.30;;;;;;;5.46;75.15;101796.13;108582;1279;23081;-82
2022/11/27 09:35:16;;;;;;;90.50;78.10;;;;;;;5.50;75.17;101796.50;108875;1272;21951;-83
2022/11/27 09:38:01;;;;;;;86.50;71.20;;;;;;;5.57;75.11;101798.80;108871;1260;21921;-82
2022/11/27 09:41:06;;;;;;;123.00;104.10;;;;;;;5.64;75.07;101789.67;108618;1280;22399;-83
2022/11/27 09:43:52;;;;;;;93.60;78.20;;;;;;;5.61;74.44;101781.54;108307;1278;23060;-84
2022/11/27 09:46:48;;;;;;;98.10;84.70;;;;;;;5.57;74.34;101779.10;108370;1278;23738;-82
2022/11/27 09:49:28;;;;;;;96.80;80.40;;;;;;;5.58;74.32;101783.09;108289;1283;21950;-83
2022/11/27 09:52:18;;;;;;;92.00;78.00;;;;;;;5.63;74.53;101781.73;107863;1291;21953;-82
2022/11/27 09:55:42;;;;;;;;;;;;;;;;;;;;;
2022/11/27 09:58:46;;;;;;;95.60;78.50;;;;;;;5.82;74.38;101776.48;108026;1286;23109;-84
2022/11/27 10:01:30;;;;;;;88.90;77.60;;;;;;;5.85;74.15;101773.02;108516;1278;21940;-83
2022/11/27 10:04:19;;;;;;;93.80;77.90;;;;;;;5.91;74.11;101774.42;108571;1274;21976;-83
2022/11/27 10:07:35;;;;;;;97.40;75.90;;;;;;;5.93;73.69;101774.44;108580;1280;24272;-84
2022/11/27 10:10:30;;;;;;;92.90;77.50;;;;;;;5.89;73.34;101771.83;108724;1272;21929;-84
2022/11/27 10:13:31;;;;;;;95.60;81.20;;;;;;;5.87;73.26;101765.60;108848;1269;23020;-83
2022/11/27 10:16:32;;;;;;;94.80;77.30;;;;;;;5.83;73.23;101758.86;108816;1277;22034;-85
2022/11/27 10:19:39;;;;;;;90.40;73.30;;;;;;;5.88;73.57;101753.86;108914;1277;22169;-84
2022/11/27 10:22:21;;;;;;;77.40;62.70;;;;;;;5.90;73.37;101751.63;108964;1277;21941;-84
2022/11/27 10:25:27;;;;;;;82.10;68.30;;;;;;;5.90;73.30;101748.52;108504;1281;23141;-84
2022/11/27 10:28:18;;;;;;;80.70;64.10;;;;;;;5.96;73.45;101751.84;108449;1285;21909;-83
2022/11/27 10:30:56;;;;;;;76.60;62.80;;;;;;;5.99;73.32;101748.39;108470;1283;21955;-85
2022/11/27 10:33:42;;;;;;;79.10;64.60;;;;;;;6.04;73.21;101743.41;108806;1283;21947;-85
2022/11/27 10:36:26;;;;;;;74.60;62.80;;;;;;;6.11;73.10;101741.01;108644;1275;21950;-83
2022/11/27 10:39:10;;;;;;;75.50;60.50;;;;;;;6.13;72.98;101737.91;108496;1278;21970;-83
2022/11/27 10:42:20;;;;;;;67.60;54.90;;;;;;;6.22;73.18;101738.97;108743;1283;22804;-84
2022/11/27 10:45:03;;;;;;;70.70;57.20;;;;;;;6.31;73.10;101741.41;108996;1277;21931;-86
2022/11/27 10:47:32;;;;;;;102.20;81.70;;;;;;;6.40;73.00;101736.75;108794;1269;21936;-84
2022/11/27 10:50:16;;;;;;;65.70;57.30;;;;;;;6.47;72.53;101732.27;109186;1274;21925;-83
2022/11/27 10:52:58;;;;;;;;;;;;;;;6.48;72.12;101731.05;109225;1272;21985;-84
2022/11/27 10:56:14;;;;;;;101.50;84.70;;;;;;;6.40;72.27;101730.35;109206;1269;23438;-86
2022/11/27 10:59:04;;;;;;;;;;;;;;;6.43;72.20;101724.84;109240;1268;21939;-81
2022/11/27 11:01:48;;;;;;;82.20;58.90;;;;;;;6.39;72.14;101721.18;109246;1266;21924;-84
2022/11/27 11:04:29;;;;;;;77.30;57.80;;;;;;;6.48;72.23;101718.95;109038;1267;22155;-84
2022/11/27 11:07:41;;;;;;;107.50;80.50;;;;;;;6.57;71.87;101712.91;109150;1272;23602;-84
2022/11/27 11:10:35;;;;;;;78.30;60.60;;;;;;;6.61;71.49;101712.39;108873;1277;22009;-84
2022/11/27 11:13:20;;;;;;;76.30;62.40;;;;;;;6.61;71.08;101706.86;108347;1283;21869;-84
2022/11/27 11:16:16;;;;;;;73.80;60.80;;;;;;;6.63;71.16;101700.80;108403;1285;21965;-85
2022/11/27 11:18:59;;;;;;;93.30;70.80;;;;;;;6.70;71.07;101696.30;108474;1279;22112;-84
2022/11/27 11:21:39;;;;;;;76.40;61.70;;;;;;;6.77;71.06;101690.59;108368;1278;23704;-84
2022/11/27 11:24:38;;;;;;;76.20;66.00;;;;;;;6.82;70.77;101684.36;108478;1280;21951;-83
2022/11/27 11:27:29;;;;;;;66.20;55.10;;;;;;;6.85;70.79;101682.98;108590;1283;21958;-83
2022/11/27 11:30:20;;;;;;;71.20;59.90;;;;;;;6.92;70.64;101684.69;108509;1283;21951;-85
2022/11/27 11:33:40;;;;;;;;;;;;;;;;;;;;;
2022/11/27 11:36:13;;;;;;;78.80;63.20;;;;;;;6.86;69.68;101684.52;109053;1276;22373;-86
2022/11/27 11:38:45;;;;;;;64.30;55.00;;;;;;;6.87;69.77;101681.93;108317;1280;22697;-84
2022/11/27 11:41:16;;;;;;;68.60;60.40;;;;;;;6.89;69.60;101682.27;108278;1283;21943;-84
2022/11/27 11:44:01;;;;;;;70.70;60.50;;;;;;;6.94;69.68;101683.13;108393;1283;22278;-84
2022/11/27 11:46:35;;;;;;;92.50;82.10;;;;;;;6.98;69.51;101683.30;108609;1277;23776;-83
2022/11/27 11:49:23;;;;;;;121.40;105.00;;;;;;;6.99;69.25;101676.72;108710;1278;21932;-83
2022/11/27 11:53:22;;;;;;;98.00;77.70;;;;;;;6.98;69.43;101675.52;108805;1272;21931;-84
2022/11/27 11:56:21;;;;;;;;;;;;;;;6.97;69.27;101673.61;108720;1271;23728;-84
2022/11/27 11:59:18;;;;;;;83.80;71.80;;;;;;;6.92;69.40;101673.63;109085;1259;23666;-84
2022/11/27 12:02:08;;;;;;;69.00;61.30;;;;;;;6.94;69.37;101671.53;108881;1267;21923;-83
2022/11/27 12:05:09;;;;;;;73.90;65.80;;;;;;;6.95;69.14;101670.66;108943;1262;22227;-83
2022/11/27 12:08:31;;;;;;;72.10;58.70;;;;;;;7.00;69.39;101666.33;108906;1262;23222;-77
2022/11/27 12:11:22;;;;;;;65.90;54.00;;;;;;;7.10;69.57;101664.77;109212;1259;21932;-83
2022/11/27 12:14:04;;;;;;;75.20;63.30;;;;;;;7.20;69.45;101664.55;108861;1262;22069;-84
2022/11/27 12:16:57;;;;;;;69.50;60.10;;;;;;;7.24;69.05;101658.66;108919;1269;22001;-83
2022/11/27 12:20:20;;;;;;;88.60;69.10;;;;;;;7.21;68.77;101659.53;109246;1266;21943;-82